createdAt,value
2023-02-27T00:04:22.295Z,101396.15
2023-02-27T00:19:39.511Z,101395.59
2023-02-27T00:34:42.824Z,101402.97
2023-02-27T00:49:45.817Z,101406.88
2023-02-27T01:04:48.398Z,101419.36
2023-02-27T01:20:09.910Z,101419.54
2023-02-27T01:35:12.502Z,101427.81
2023-02-27T01:50:17.743Z,101431.08
2023-02-27T02:05:22.365Z,101437.02
2023-02-27T02:21:21.328Z,101439.96
2023-02-27T02:36:46.028Z,101434.48
2023-02-27T02:52:24.432Z,101450.55
2023-02-27T03:07:40.466Z,101465.34
2023-02-27T03:22:49.064Z,101477.95
2023-02-27T03:38:50.737Z,101483.55
2023-02-27T03:54:29.799Z,101491.86
2023-02-27T04:09:41.436Z,101506.40
2023-02-27T04:25:31.271Z,101525.86
2023-02-27T04:40:49.174Z,101531.55
2023-02-27T04:56:20.000Z,101534.91
2023-02-27T05:13:51.997Z,101549.89
2023-02-27T05:29:22.064Z,101563.23
2023-02-27T05:44:47.744Z,101572.84
2023-02-27T06:15:31.482Z,101600.47
2023-02-27T06:30:36.661Z,101607.54
2023-02-27T06:45:41.265Z,101623.44
2023-02-27T07:00:45.949Z,101639.78
2023-02-27T07:15:51.594Z,101657.23
2023-02-27T07:30:56.531Z,101668.27
2023-02-27T07:46:04.548Z,101672.20
2023-02-27T08:01:08.956Z,101683.29
2023-02-27T08:16:13.572Z,101692.58
2023-02-27T08:31:17.912Z,101705.59
2023-02-27T08:46:22.032Z,101721.11
2023-02-27T09:01:41.535Z,101735.09
2023-02-27T09:16:47.065Z,101744.20
2023-02-27T09:31:52.103Z,101755.71
2023-02-27T09:46:57.282Z,101771.84
2023-02-27T10:02:48.292Z,101782.60
2023-02-27T10:18:26.941Z,101783.69
2023-02-27T10:33:38.651Z,101796.73
2023-02-27T10:48:43.295Z,101796.16
2023-02-27T11:17:37.001Z,101793.80
2023-02-27T11:49:09.487Z,101794.12
2023-02-27T12:04:51.930Z,101787.26
2023-02-27T12:20:22.417Z,101781.17
2023-02-27T12:35:33.321Z,101782.64
2023-02-27T12:51:42.329Z,101794.02
2023-02-27T13:06:58.426Z,101792.98
2023-02-27T13:22:08.908Z,101796.89
2023-02-27T13:37:13.620Z,101795.97
2023-02-27T13:52:39.132Z,101797.16
2023-02-27T14:08:20.835Z,101806.52
2023-02-27T14:23:27.553Z,101810.42
2023-02-27T14:38:35.468Z,101818.32
2023-02-27T14:53:40.029Z,101824.02
2023-02-27T15:08:51.682Z,101835.32
2023-02-27T15:24:06.553Z,101850.00
2023-02-27T15:55:13.087Z,101873.64
2023-02-27T16:11:02.724Z,101892.16
2023-02-27T16:26:29.571Z,101908.05
2023-02-27T16:41:34.251Z,101924.73
2023-02-27T16:56:39.052Z,101941.23
2023-02-27T17:11:43.189Z,101956.83
2023-02-27T17:26:48.419Z,101964.33
2023-02-27T17:41:54.104Z,101979.71
2023-02-27T17:57:13.588Z,101988.09
2023-02-27T18:12:18.016Z,101988.39
2023-02-27T18:27:23.210Z,101994.10
2023-02-27T18:42:27.883Z,102002.23
2023-02-27T18:57:32.649Z,101998.61
2023-02-27T19:12:39.908Z,101998.38
2023-02-27T19:27:48.014Z,102003.63
2023-02-27T19:42:53.296Z,102016.12
2023-02-27T19:57:57.491Z,102020.36
2023-02-27T20:13:01.980Z,102025.98
2023-02-27T20:28:06.094Z,102030.22
2023-02-27T20:43:10.865Z,102032.89
2023-02-27T20:58:16.641Z,102054.54
2023-02-27T21:13:21.376Z,102062.50
2023-02-27T21:28:26.002Z,102069.27
2023-02-27T21:43:44.115Z,102076.44
2023-02-27T21:58:48.218Z,102082.55
2023-02-27T22:13:52.266Z,102082.44
2023-02-27T22:28:57.784Z,102084.95
2023-02-27T22:44:04.830Z,102092.16
2023-02-27T22:59:09.591Z,102099.69
2023-02-27T23:14:15.011Z,102102.71
2023-02-27T23:29:19.797Z,102112.13
2023-02-27T23:44:24.048Z,102117.30
2023-02-27T23:59:28.813Z,102124.98
